Time,TemperatureF,DewpointF,PressureIn,WindDirection,WindDirectionDegrees,WindSpeedMPH,WindSpeedGustMPH,Humidity,HourlyPrecipIn,Conditions,Clouds,dailyrainin,SoftwareType,DateUTC
2013-08-27 00:02:00,79.2,64.0,30.00,East,98,5.0,8.0,60,0.00,,,0.00,weatherlink.com 1.10,2013-08-27 05:02:00,
2013-08-27 00:17:00,78.6,63.0,30.00,East,97,3.0,6.0,60,0.00,,,0.00,weatherlink.com 1.10,2013-08-27 05:17:00,
2013-08-27 00:32:00,78.3,63.0,30.00,ESE,103,0.0,5.0,60,0.00,,,0.00,weatherlink.com 1.10,2013-08-27 05:32:00,
2013-08-27 00:47:00,77.8,63.0,30.00,ESE,103,0.0,1.0,61,0.00,,,0.00,weatherlink.com 1.10,2013-08-27 05:47:00,
2013-08-27 01:02:00,77.6,63.0,30.00,ESE,103,0.0,1.0,61,0.00,,,0.00,weatherlink.com 1.10,2013-08-27 06:02:00,
2013-08-27 01:17:00,76.7,64.0,30.00,ESE,111,5.0,8.0,64,0.00,,,0.00,weatherlink.com 1.10,2013-08-27 06:17:00,
2013-08-27 01:32:00,76.4,64.0,30.00,ESE,121,0.0,6.0,65,0.00,,,0.00,weatherlink.com 1.10,2013-08-27 06:32:00,
2013-08-27 01:47:00,75.7,64.0,30.00,SE,130,0.0,0.0,67,0.00,,,0.00,weatherlink.com 1.10,2013-08-27 06:47:00,
2013-08-27 02:02:00,75.3,64.0,29.99,SE,130,0.0,0.0,68,0.00,,,0.00,weatherlink.com 1.10,2013-08-27 07:02:00,
2013-08-27 02:18:00,74.7,64.0,29.99,SE,130,0.0,0.0,70,0.00,,,0.00,weatherlink.com 1.10,2013-08-27 07:18:00,
2013-08-27 02:33:00,74.3,64.0,29.99,SE,130,0.0,0.0,71,0.00,,,0.00,weatherlink.com 1.10,2013-08-27 07:33:00,
2013-08-27 02:48:00,74.1,64.0,29.99,SE,134,0.0,0.0,71,0.00,,,0.00,weatherlink.com 1.10,2013-08-27 07:48:00,
2013-08-27 03:03:00,73.7,64.0,29.99,SE,134,0.0,0.0,72,0.00,,,0.00,weatherlink.com 1.10,2013-08-27 08:03:00,
2013-08-27 03:18:00,73.2,64.0,29.99,SE,134,0.0,0.0,73,0.00,,,0.00,weatherlink.com 1.10,2013-08-27 08:18:00,
2013-08-27 03:33:00,72.8,64.0,30.00,SE,134,0.0,0.0,74,0.00,,,0.00,weatherlink.com 1.10,2013-08-27 08:33:00,
2013-08-27 03:48:00,72.2,64.0,30.00,SE,134,0.0,0.0,76,0.00,,,0.00,weatherlink.com 1.10,2013-08-27 08:48:00,
2013-08-27 04:03:00,71.7,64.0,30.00,SE,134,0.0,0.0,77,0.00,,,0.00,weatherlink.com 1.10,2013-08-27 09:03:00,
2013-08-27 04:18:00,71.4,64.0,30.00,SE,134,0.0,0.0,78,0.00,,,0.00,weatherlink.com 1.10,2013-08-27 09:18:00,
2013-08-27 04:33:00,71.1,64.0,30.00,SE,134,0.0,0.0,79,0.00,,,0.00,weatherlink.com 1.10,2013-08-27 09:33:00,
2013-08-27 04:48:00,70.9,64.0,30.01,SE,134,0.0,0.0,80,0.00,,,0.00,weatherlink.com 1.10,2013-08-27 09:48:00,
2013-08-27 05:03:00,72.3,65.0,30.01,ESE,113,0.0,0.0,79,0.00,,,0.00,weatherlink.com 1.10,2013-08-27 10:03:00,
2013-08-27 05:18:00,72.2,65.0,30.01,ESE,105,0.0,0.0,79,0.00,,,0.00,weatherlink.com 1.10,2013-08-27 10:18:00,
2013-08-27 05:33:00,72.2,66.0,30.01,ESE,105,0.0,0.0,80,0.00,,,0.00,weatherlink.com 1.10,2013-08-27 10:33:00,
2013-08-27 05:48:00,71.7,66.0,30.02,ESE,108,2.0,4.0,82,0.00,,,0.00,weatherlink.com 1.10,2013-08-27 10:48:00,
2013-08-27 06:03:00,71.5,66.0,30.02,ESE,108,0.0,0.0,83,0.00,,,0.00,weatherlink.com 1.10,2013-08-27 11:03:00,
2013-08-27 06:18:00,71.5,67.0,30.02,ESE,108,0.0,0.0,84,0.00,,,0.00,weatherlink.com 1.10,2013-08-27 11:18:00,
2013-08-27 06:33:00,71.8,67.0,30.03,ESE,108,0.0,0.0,84,0.00,,,0.00,weatherlink.com 1.10,2013-08-27 11:33:00,
2013-08-27 06:48:00,71.7,67.0,30.03,ESE,108,0.0,0.0,84,0.00,,,0.00,weatherlink.com 1.10,2013-08-27 11:48:00,
2013-08-27 07:03:00,71.3,67.0,30.03,ESE,108,0.0,0.0,85,0.00,,,0.00,weatherlink.com 1.10,2013-08-27 12:03:00,
2013-08-27 07:18:00,71.2,67.0,30.03,ESE,108,0.0,0.0,86,0.00,,,0.00,weatherlink.com 1.10,2013-08-27 12:18:00,
2013-08-27 07:33:00,71.4,67.0,30.04,ESE,108,0.0,0.0,86,0.00,,,0.00,weatherlink.com 1.10,2013-08-27 12:33:00,
2013-08-27 07:48:00,72.3,68.0,30.04,ESE,109,0.0,0.0,87,0.00,,,0.00,weatherlink.com 1.10,2013-08-27 12:48:00,
2013-08-27 08:03:00,73.3,69.0,30.04,ESE,107,0.0,0.0,85,0.00,,,0.00,weatherlink.com 1.10,2013-08-27 13:03:00,
2013-08-27 08:18:00,74.3,69.0,30.04,East,101,0.0,0.0,84,0.00,,,0.00,weatherlink.com 1.10,2013-08-27 13:18:00,
2013-08-27 08:33:00,75.0,70.0,30.04,SE,145,0.0,5.0,83,0.00,,,0.00,weatherlink.com 1.10,2013-08-27 13:33:00,
2013-08-27 08:48:00,75.8,71.0,30.04,SSW,197,0.0,10.0,84,0.00,,,0.00,weatherlink.com 1.10,2013-08-27 13:48:00,
2013-08-27 09:03:00,76.6,71.0,30.04,SSE,168,2.0,11.0,82,0.00,,,0.00,weatherlink.com 1.10,2013-08-27 14:03:00,
2013-08-27 09:18:00,77.4,71.0,30.05,SSW,194,4.0,9.0,81,0.00,,,0.00,weatherlink.com 1.10,2013-08-27 14:18:00,
2013-08-27 09:33:00,77.3,71.0,30.05,South,173,9.0,11.0,81,0.00,,,0.00,weatherlink.com 1.10,2013-08-27 14:33:00,
2013-08-27 09:48:00,78.1,71.0,30.04,SSW,200,5.0,10.0,79,0.00,,,0.00,weatherlink.com 1.10,2013-08-27 14:48:00,
2013-08-27 10:03:00,78.9,72.0,30.05,South,190,6.0,11.0,78,0.00,,,0.00,weatherlink.com 1.10,2013-08-27 15:03:00,
2013-08-27 10:18:00,79.1,71.0,30.05,SSE,148,8.0,13.0,77,0.00,,,0.00,weatherlink.com 1.10,2013-08-27 15:18:00,
2013-08-27 10:33:00,79.1,72.0,30.05,South,179,5.0,11.0,78,0.00,,,0.00,weatherlink.com 1.10,2013-08-27 15:33:00,
2013-08-27 10:48:00,80.2,72.0,30.05,SSE,153,3.0,12.0,75,0.00,,,0.00,weatherlink.com 1.10,2013-08-27 15:48:00,
2013-08-27 11:03:00,81.1,73.0,30.05,South,191,0.0,14.0,75,0.00,,,0.00,weatherlink.com 1.10,2013-08-27 16:03:00,
2013-08-27 11:18:00,81.1,72.0,30.05,South,185,3.0,14.0,73,0.00,,,0.00,weatherlink.com 1.10,2013-08-27 16:18:00,
2013-08-27 11:33:00,81.3,71.0,30.05,SSE,156,5.0,11.0,72,0.00,,,0.00,weatherlink.com 1.10,2013-08-27 16:33:00,
2013-08-27 11:48:00,82.7,72.0,30.04,South,177,3.0,15.0,69,0.00,,,0.00,weatherlink.com 1.10,2013-08-27 16:48:00,
2013-08-27 12:03:00,83.0,71.0,30.04,SSE,162,2.0,16.0,67,0.00,,,0.00,weatherlink.com 1.10,2013-08-27 17:03:00,
2013-08-27 12:18:00,83.4,71.0,30.03,SSE,154,8.0,13.0,67,0.00,,,0.00,weatherlink.com 1.10,2013-08-27 17:18:00,
2013-08-27 12:33:00,83.0,71.0,30.03,SSE,148,10.0,14.0,68,0.00,,,0.00,weatherlink.com 1.10,2013-08-27 17:33:00,
2013-08-27 12:49:00,84.4,71.0,30.03,SSE,148,5.0,12.0,65,0.00,,,0.00,weatherlink.com 1.10,2013-08-27 17:49:00,
2013-08-27 13:04:00,83.5,70.0,30.03,South,191,8.0,16.0,64,0.00,,,0.00,weatherlink.com 1.10,2013-08-27 18:04:00,
2013-08-27 13:19:00,84.3,70.0,30.02,South,184,0.0,13.0,63,0.00,,,0.00,weatherlink.com 1.10,2013-08-27 18:19:00,
2013-08-27 13:34:00,85.4,71.0,30.02,SE,143,2.0,12.0,62,0.00,,,0.00,weatherlink.com 1.10,2013-08-27 18:34:00,
2013-08-27 13:49:00,84.6,71.0,30.02,SSE,150,3.0,17.0,63,0.00,,,0.00,weatherlink.com 1.10,2013-08-27 18:49:00,
2013-08-27 14:04:00,84.3,71.0,30.01,SE,139,7.0,14.0,64,0.00,,,0.00,weatherlink.com 1.10,2013-08-27 19:04:00,
2013-08-27 14:19:00,85.0,70.0,30.01,SSW,208,11.0,14.0,62,0.00,,,0.00,weatherlink.com 1.10,2013-08-27 19:19:00,
2013-08-27 14:34:00,85.7,70.0,30.01,SSW,213,12.0,14.0,60,0.00,,,0.00,weatherlink.com 1.10,2013-08-27 19:34:00,
2013-08-27 14:49:00,85.2,70.0,30.00,SSW,205,10.0,16.0,61,0.00,,,0.00,weatherlink.com 1.10,2013-08-27 19:49:00,
2013-08-27 15:04:00,86.1,71.0,30.00,South,191,8.0,14.0,60,0.00,,,0.00,weatherlink.com 1.10,2013-08-27 20:04:00,
2013-08-27 15:19:00,86.3,71.0,29.99,SSE,165,5.0,12.0,60,0.00,,,0.00,weatherlink.com 1.10,2013-08-27 20:19:00,
2013-08-27 15:34:00,86.5,71.0,29.99,SE,144,5.0,12.0,61,0.00,,,0.00,weatherlink.com 1.10,2013-08-27 20:34:00,
2013-08-27 16:04:00,86.0,70.0,29.98,SSW,209,7.0,13.0,60,0.00,,,0.00,weatherlink.com 1.10,2013-08-27 21:04:00,
2013-08-27 16:49:00,87.3,71.0,29.98,South,174,0.0,11.0,58,0.00,,,0.00,weatherlink.com 1.10,2013-08-27 21:49:00,
2013-08-27 17:04:00,88.0,71.0,29.97,SSW,213,0.0,6.0,57,0.00,,,0.00,weatherlink.com 1.10,2013-08-27 22:04:00,
2013-08-27 17:19:00,88.8,70.0,29.96,SSE,152,9.0,11.0,54,0.00,,,0.00,weatherlink.com 1.10,2013-08-27 22:19:00,
2013-08-27 17:34:00,88.2,69.0,29.96,SSW,202,7.0,12.0,54,0.00,,,0.00,weatherlink.com 1.10,2013-08-27 22:34:00,
2013-08-27 17:49:00,88.2,70.0,29.96,South,174,8.0,11.0,55,0.00,,,0.00,weatherlink.com 1.10,2013-08-27 22:49:00,
2013-08-27 18:04:00,88.0,70.0,29.96,SW,217,1.0,9.0,55,0.00,,,0.00,weatherlink.com 1.10,2013-08-27 23:04:00,
2013-08-27 18:19:00,88.7,70.0,29.95,WSW,240,7.0,9.0,54,0.00,,,0.00,weatherlink.com 1.10,2013-08-27 23:19:00,
2013-08-27 18:34:00,88.8,69.0,29.95,SSW,199,7.0,9.0,53,0.00,,,0.00,weatherlink.com 1.10,2013-08-27 23:34:00,
2013-08-27 18:49:00,88.8,69.0,29.94,SSW,211,6.0,7.0,52,0.00,,,0.00,weatherlink.com 1.10,2013-08-27 23:49:00,
2013-08-27 19:04:00,88.9,68.0,29.94,SSW,213,0.0,7.0,51,0.00,,,0.00,weatherlink.com 1.10,2013-08-28 00:04:00,
2013-08-27 19:19:00,88.6,69.0,29.94,SSW,194,0.0,6.0,52,0.00,,,0.00,weatherlink.com 1.10,2013-08-28 00:19:00,
2013-08-27 19:34:00,88.0,69.0,29.94,SSW,194,0.0,0.0,53,0.00,,,0.00,weatherlink.com 1.10,2013-08-28 00:34:00,
2013-08-27 19:49:00,87.4,69.0,29.94,SSW,194,0.0,0.0,54,0.00,,,0.00,weatherlink.com 1.10,2013-08-28 00:49:00,
2013-08-27 20:04:00,86.7,69.0,29.94,SSW,194,0.0,0.0,55,0.00,,,0.00,weatherlink.com 1.10,2013-08-28 01:04:00,
2013-08-27 20:19:00,85.9,69.0,29.94,SSW,194,0.0,0.0,57,0.00,,,0.00,weatherlink.com 1.10,2013-08-28 01:19:00,
2013-08-27 20:34:00,85.5,68.0,29.94,SSW,194,0.0,0.0,56,0.00,,,0.00,weatherlink.com 1.10,2013-08-28 01:34:00,
2013-08-27 20:49:00,84.2,68.0,29.95,SSE,168,0.0,1.0,58,0.00,,,0.00,weatherlink.com 1.10,2013-08-28 01:49:00,
2013-08-27 21:04:00,82.7,68.0,29.95,SE,134,9.0,9.0,61,0.00,,,0.00,weatherlink.com 1.10,2013-08-28 02:04:00,
2013-08-27 21:19:00,83.5,68.0,29.96,SW,229,6.0,9.0,60,0.00,,,0.00,weatherlink.com 1.10,2013-08-28 02:19:00,
2013-08-27 21:34:00,82.7,68.0,29.96,SW,217,4.0,7.0,62,0.00,,,0.00,weatherlink.com 1.10,2013-08-28 02:34:00,
2013-08-27 21:49:00,82.1,69.0,29.97,SW,215,4.0,6.0,64,0.00,,,0.00,weatherlink.com 1.10,2013-08-28 02:49:00,
2013-08-27 22:04:00,81.7,69.0,29.97,SSW,207,3.0,8.0,65,0.00,,,0.00,weatherlink.com 1.10,2013-08-28 03:04:00,
2013-08-27 22:19:00,81.2,69.0,29.97,SSW,203,2.0,6.0,67,0.00,,,0.00,weatherlink.com 1.10,2013-08-28 03:19:00,
2013-08-27 22:34:00,80.5,69.0,29.97,SSW,210,4.0,6.0,68,0.00,,,0.00,weatherlink.com 1.10,2013-08-28 03:34:00,
2013-08-27 22:49:00,80.3,69.0,29.97,SSW,200,0.0,5.0,68,0.00,,,0.00,weatherlink.com 1.10,2013-08-28 03:49:00,
2013-08-27 23:04:00,79.2,69.0,29.97,South,182,0.0,4.0,70,0.00,,,0.00,weatherlink.com 1.10,2013-08-28 04:04:00,
2013-08-27 23:19:00,78.9,68.0,29.97,SSW,206,0.0,7.0,70,0.00,,,0.00,weatherlink.com 1.10,2013-08-28 04:19:00,
2013-08-27 23:34:00,78.9,68.0,29.97,SSW,203,3.0,7.0,70,0.00,,,0.00,weatherlink.com 1.10,2013-08-28 04:34:00,
2013-08-27 23:49:00,78.5,68.0,29.97,SSW,202,0.0,4.0,70,0.00,,,0.00,weatherlink.com 1.10,2013-08-28 04:49:00,